Terminal Aerodrome Forecast
Issued by NWS Topeka, KS

Home | Current Version | Previous Version | Graphics & Text | Print | Product List | Glossary On
Versions: 1 2 3 4 5 6 7 8 9 10 11 12 13 14 15 16 17 18 19 20 21 22 23 24 25
363
FTUS43 KTOP 212025 AAA
TAFTOP
TAF AMD
KTOP 212025Z 2120/2218 18012KT P6SM OVC035
     FM212300 14009KT P6SM VCSH BKN025
     FM220300 17007KT P6SM BKN040
     FM221200 21008KT P6SM OVC015=

USA.gov is the U.S. government's official web portal to all federal, state and local government web resources and services.